Time;durP1;ratioP1;P1;durP2;ratioP2;P2;SDS_P1;SDS_P2;PMS_P1;PMS_P2;Temp;Humidity;BMP_temperature;BMP_pressure;BME280_temperature;BME280_humidity;BME280_pressure;Samples;Min_cycle;Max_cycle;Signal;HPM_P1;HPM_P2
2022/12/06 00:00:12;;;;;;;8.93;1.52;;;;;;;;;;5097111;27;20147;-76
2022/12/06 00:02:40;;;;;;;3.15;0.90;;;;;;;;;;5112408;27;20055;-76
2022/12/06 00:05:07;;;;;;;4.93;0.90;;;;;;;;;;5098513;27;20385;-76
2022/12/06 00:07:36;;;;;;;11.38;1.30;;;;;;;;;;5112786;27;20047;-76
2022/12/06 00:10:04;;;;;;;5.55;1.67;;;;;;;;;;5109168;27;20055;-76
2022/12/06 00:12:32;;;;;;;11.90;1.23;;;;;;;;;;5113654;27;20054;-74
2022/12/06 00:14:59;;;;;;;6.38;1.40;;;;;;;;;;5104986;27;20055;-76
2022/12/06 00:17:27;;;;;;;9.43;1.10;;;;;;;;;;5110332;27;20055;-77
2022/12/06 00:19:55;;;;;;;8.27;1.35;;;;;;;;;;5105819;27;20047;-73
2022/12/06 00:22:22;;;;;;;4.40;1.13;;;;;;;;;;5127603;27;20126;-76
2022/12/06 00:24:51;;;;;;;9.73;1.20;;;;;;;;;;5114748;27;20474;-76
2022/12/06 00:27:18;;;;;;;4.03;1.23;;;;;;;;;;5128641;27;20053;-76
2022/12/06 00:29:46;;;;;;;7.10;1.55;;;;;;;;;;5104153;27;20055;-76
2022/12/06 00:32:13;;;;;;;7.78;1.58;;;;;;;;;;5137238;27;20154;-74
2022/12/06 00:34:40;;;;;;;7.07;1.70;;;;;;;;;;5095308;27;20065;-76
2022/12/06 00:37:08;;;;;;;5.90;1.30;;;;;;;;;;5115310;27;20073;-76
2022/12/06 00:39:35;;;;;;;6.97;1.40;;;;;;;;;;5110268;27;20479;-76
2022/12/06 00:42:04;;;;;;;13.82;2.10;;;;;;;;;;5095741;27;20062;-75
2022/12/06 00:44:32;;;;;;;11.90;2.70;;;;;;;;;;5111591;27;20051;-76
2022/12/06 00:46:59;;;;;;;4.85;1.70;;;;;;;;;;5117053;27;20088;-76
2022/12/06 00:49:27;;;;;;;6.60;1.58;;;;;;;;;;5108968;27;20040;-76
2022/12/06 00:51:55;;;;;;;8.73;2.00;;;;;;;;;;5124595;27;20050;-76
2022/12/06 00:54:23;;;;;;;6.53;2.05;;;;;;;;;;5117071;27;20118;-75
2022/12/06 00:56:50;;;;;;;12.57;1.83;;;;;;;;;;5104835;27;20136;-76
2022/12/06 00:59:19;;;;;;;8.05;1.85;;;;;;;;;;5095384;27;20047;-76
2022/12/06 01:01:46;;;;;;;6.53;1.88;;;;;;;;;;5103052;27;20501;-76
2022/12/06 01:04:14;;;;;;;11.55;2.10;;;;;;;;;;5105700;27;20065;-76
2022/12/06 01:06:41;;;;;;;9.02;1.98;;;;;;;;;;5103678;27;20592;-76
2022/12/06 01:09:09;;;;;;;12.73;2.15;;;;;;;;;;5102175;27;20052;-75
2022/12/06 01:11:37;;;;;;;11.27;2.30;;;;;;;;;;5116877;27;20534;-76
2022/12/06 01:14:04;;;;;;;8.82;2.08;;;;;;;;;;5119455;27;20062;-76
2022/12/06 01:16:33;;;;;;;12.32;2.85;;;;;;;;;;5090254;28;20048;-76
2022/12/06 01:19:01;;;;;;;13.80;2.70;;;;;;;;;;5099958;28;20044;-75
2022/12/06 01:21:29;;;;;;;7.55;2.53;;;;;;;;;;5104078;27;20055;-76
2022/12/06 01:23:56;;;;;;;5.40;2.15;;;;;;;;;;5109709;27;20043;-76
2022/12/06 01:26:25;;;;;;;10.20;2.80;;;;;;;;;;5113922;27;20059;-75
2022/12/06 01:28:52;;;;;;;6.28;2.33;;;;;;;;;;5098342;27;20075;-73
2022/12/06 01:31:19;;;;;;;9.68;2.50;;;;;;;;;;5117106;27;20502;-76
2022/12/06 01:33:48;;;;;;;9.15;2.45;;;;;;;;;;5118508;27;20400;-73
2022/12/06 01:36:19;;;;;;;9.05;2.30;;;;;;;;;;5104840;28;20402;-77
2022/12/06 01:38:50;;;;;;;9.10;2.40;;;;;;;;;;5092817;27;20058;-76
2022/12/06 01:41:17;;;;;;;31.63;3.72;;;;;;;;;;5110524;27;20051;-76
2022/12/06 01:43:45;;;;;;;10.45;2.67;;;;;;;;;;5114348;27;20050;-76
2022/12/06 01:46:18;;;;;;;8.45;2.70;;;;;;;;;;5111469;27;20052;-76
2022/12/06 01:48:45;;;;;;;6.75;1.90;;;;;;;;;;5121498;27;20067;-76
2022/12/06 01:51:15;;;;;;;9.50;2.50;;;;;;;;;;5093692;27;20429;-76
2022/12/06 01:53:43;;;;;;;6.30;2.38;;;;;;;;;;5122537;27;20047;-76
2022/12/06 01:56:10;;;;;;;9.40;2.20;;;;;;;;;;5126359;27;20070;-76
2022/12/06 01:58:39;;;;;;;3.63;2.00;;;;;;;;;;5127282;27;20556;-76
2022/12/06 02:01:08;;;;;;;5.28;1.90;;;;;;;;;;5122646;27;20065;-76
2022/12/06 02:03:36;;;;;;;5.97;2.33;;;;;;;;;;5114279;27;20043;-76
2022/12/06 02:06:04;;;;;;;7.28;2.05;;;;;;;;;;5104775;27;20057;-76
2022/12/06 02:08:33;;;;;;;6.78;2.10;;;;;;;;;;5098875;27;20058;-77
2022/12/06 02:11:02;;;;;;;7.50;2.50;;;;;;;;;;5119440;27;20042;-76
2022/12/06 02:13:30;;;;;;;8.57;2.60;;;;;;;;;;5105440;27;20050;-76
2022/12/06 02:16:04;;;;;;;8.25;2.05;;;;;;;;;;5099352;27;20055;-75
2022/12/06 02:18:35;;;;;;;6.93;2.13;;;;;;;;;;5116021;27;20043;-76
2022/12/06 02:21:07;;;;;;;8.55;2.20;;;;;;;;;;5101342;27;20039;-76
2022/12/06 02:23:48;;;;;;;5.80;2.70;;;;;;;;;;5103607;27;20053;-75
2022/12/06 02:26:27;;;;;;;6.10;2.53;;;;;;;;;;5101645;27;20047;-76
2022/12/06 02:29:12;;;;;;;9.90;2.47;;;;;;;;;;5099035;27;20082;-76
2022/12/06 02:31:42;;;;;;;9.40;2.72;;;;;;;;;;5108257;27;20497;-76
2022/12/06 02:34:13;;;;;;;9.32;3.83;;;;;;;;;;5116466;27;20056;-76
2022/12/06 02:36:45;;;;;;;6.85;2.60;;;;;;;;;;5099235;27;20444;-76
2022/12/06 02:39:13;;;;;;;6.15;2.38;;;;;;;;;;5128629;27;20065;-76
2022/12/06 02:41:44;;;;;;;10.57;2.83;;;;;;;;;;5102317;27;20055;-76
2022/12/06 02:44:16;;;;;;;14.32;2.55;;;;;;;;;;5101874;27;20474;-77
2022/12/06 02:46:45;;;;;;;17.52;2.75;;;;;;;;;;5118951;27;20047;-76
2022/12/06 02:49:13;;;;;;;5.20;2.45;;;;;;;;;;5117574;27;20039;-76
2022/12/06 02:51:40;;;;;;;11.88;2.75;;;;;;;;;;5126808;27;20489;-76
2022/12/06 02:54:09;;;;;;;8.73;2.70;;;;;;;;;;5117690;27;20071;-77
2022/12/06 02:56:37;;;;;;;4.75;1.92;;;;;;;;;;5118868;27;20083;-74
2022/12/06 02:59:04;;;;;;;6.40;2.05;;;;;;;;;;5100481;27;20055;-76
2022/12/06 03:01:33;;;;;;;5.38;1.88;;;;;;;;;;5101093;27;20467;-76
2022/12/06 03:04:12;;;;;;;8.02;1.77;;;;;;;;;;5094757;27;20052;-74
2022/12/06 03:06:51;;;;;;;10.07;2.10;;;;;;;;;;5101191;27;20451;-76
2022/12/06 03:09:25;;;;;;;6.65;1.50;;;;;;;;;;5121339;27;20101;-73
2022/12/06 03:11:56;;;;;;;4.18;1.20;;;;;;;;;;5120716;27;20043;-77
2022/12/06 03:14:25;;;;;;;8.55;1.60;;;;;;;;;;5121190;27;20532;-76
2022/12/06 03:16:56;;;;;;;5.82;1.40;;;;;;;;;;5119355;27;20055;-76
2022/12/06 03:19:27;;;;;;;5.35;0.90;;;;;;;;;;5123687;27;20058;-76
2022/12/06 03:21:58;;;;;;;3.42;0.55;;;;;;;;;;5105557;27;20517;-76
2022/12/06 03:24:26;;;;;;;4.50;0.88;;;;;;;;;;5098440;27;20125;-75
2022/12/06 03:26:54;;;;;;;5.07;1.05;;;;;;;;;;5106218;27;20498;-76
2022/12/06 03:29:24;;;;;;;4.43;1.00;;;;;;;;;;5097080;27;20051;-76
2022/12/06 03:31:53;;;;;;;2.15;0.55;;;;;;;;;;5108982;27;20458;-77
2022/12/06 03:34:22;;;;;;;3.17;0.80;;;;;;;;;;5096698;27;20051;-76
2022/12/06 03:36:52;;;;;;;3.58;0.80;;;;;;;;;;5111639;27;20055;-76
2022/12/06 03:39:22;;;;;;;3.83;0.75;;;;;;;;;;5090436;27;20401;-75
2022/12/06 03:41:52;;;;;;;3.45;0.70;;;;;;;;;;5093538;27;20047;-75
2022/12/06 03:44:20;;;;;;;4.05;0.93;;;;;;;;;;5117631;27;20050;-76
2022/12/06 03:46:49;;;;;;;5.50;0.90;;;;;;;;;;5126685;27;20058;-76
2022/12/06 03:49:18;;;;;;;5.38;0.65;;;;;;;;;;5093399;28;20062;-76
2022/12/06 03:51:45;;;;;;;3.55;0.63;;;;;;;;;;5117140;27;20050;-76
2022/12/06 03:54:15;;;;;;;5.32;0.95;;;;;;;;;;5115565;27;20055;-77
2022/12/06 03:56:42;;;;;;;5.85;0.70;;;;;;;;;;5114098;27;20053;-75
2022/12/06 03:59:11;;;;;;;6.82;0.90;;;;;;;;;;5116114;27;20060;-77
2022/12/06 04:01:38;;;;;;;3.72;0.93;;;;;;;;;;5098248;27;20050;-76
2022/12/06 04:04:06;;;;;;;3.05;0.90;;;;;;;;;;5098978;27;20257;-76
2022/12/06 04:06:33;;;;;;;2.88;0.70;;;;;;;;;;5098295;27;20059;-76
2022/12/06 04:11:43;;;;;;;5.53;0.65;;;;;;;;;;5098164;27;20042;-77
2022/12/06 04:14:10;;;;;;;8.00;1.00;;;;;;;;;;5116668;27;20055;-77
2022/12/06 04:19:23;;;;;;;3.72;0.52;;;;;;;;;;5098302;27;20043;-76
2022/12/06 04:24:35;;;;;;;6.25;1.10;;;;;;;;;;5096283;27;20410;-75
2022/12/06 04:40:45;;;;;;;4.80;1.05;;;;;;;;;;5100953;27;20051;-76
2022/12/06 04:45:58;;;;;;;8.50;1.30;;;;;;;;;;5101877;27;20051;-76
2022/12/06 04:48:26;;;;;;;6.00;0.90;;;;;;;;;;5116111;27;20063;-74
2022/12/06 04:50:53;;;;;;;9.63;1.30;;;;;;;;;;5119238;27;20050;-76
2022/12/06 04:53:20;;;;;;;1.88;0.90;;;;;;;;;;5107115;27;20493;-76
2022/12/06 04:55:47;;;;;;;5.22;1.10;;;;;;;;;;5095932;27;20063;-76
2022/12/06 04:58:16;;;;;;;6.55;1.10;;;;;;;;;;5107348;27;20047;-76
2022/12/06 05:00:46;;;;;;;6.15;1.77;;;;;;;;;;5094666;27;20050;-76
2022/12/06 05:03:14;;;;;;;8.02;1.27;;;;;;;;;;5094003;27;20051;-76
2022/12/06 05:05:42;;;;;;;3.45;0.95;;;;;;;;;;5107468;27;20063;-76
2022/12/06 05:08:09;;;;;;;4.70;1.08;;;;;;;;;;5096769;27;20066;-77
2022/12/06 05:10:37;;;;;;;7.70;1.08;;;;;;;;;;5089335;28;20051;-77
2022/12/06 05:13:04;;;;;;;8.80;1.10;;;;;;;;;;5128808;27;20043;-76
2022/12/06 05:15:33;;;;;;;2.40;0.77;;;;;;;;;;5111193;27;20040;-76
2022/12/06 05:18:00;;;;;;;3.25;0.82;;;;;;;;;;5098833;27;20059;-76
2022/12/06 05:20:27;;;;;;;6.10;1.23;;;;;;;;;;5088578;28;20049;-76
2022/12/06 05:22:55;;;;;;;3.83;1.02;;;;;;;;;;5107178;27;20453;-76
2022/12/06 05:25:22;;;;;;;10.68;1.42;;;;;;;;;;5140914;27;20054;-76
2022/12/06 05:27:49;;;;;;;7.32;1.23;;;;;;;;;;5098710;27;20051;-76
2022/12/06 05:30:16;;;;;;;8.80;1.30;;;;;;;;;;5108687;27;20091;-76
2022/12/06 05:32:45;;;;;;;5.75;1.10;;;;;;;;;;5097987;27;20064;-76
2022/12/06 05:35:12;;;;;;;8.10;1.30;;;;;;;;;;5103880;27;20379;-75
2022/12/06 05:37:40;;;;;;;10.77;1.50;;;;;;;;;;5111323;27;20059;-76
2022/12/06 05:40:07;;;;;;;7.95;1.40;;;;;;;;;;5111092;27;20055;-76
2022/12/06 05:42:35;;;;;;;6.18;1.42;;;;;;;;;;5114520;27;20043;-76
2022/12/06 05:45:02;;;;;;;4.57;1.10;;;;;;;;;;5097418;27;20055;-76
2022/12/06 05:47:29;;;;;;;11.73;1.25;;;;;;;;;;5113002;27;20057;-76
2022/12/06 05:49:58;;;;;;;9.15;1.35;;;;;;;;;;5124782;27;20038;-76
2022/12/06 05:52:25;;;;;;;6.72;1.60;;;;;;;;;;5102436;27;20780;-76
2022/12/06 05:54:52;;;;;;;6.10;1.27;;;;;;;;;;5114775;27;20168;-75
2022/12/06 05:57:20;;;;;;;7.70;1.60;;;;;;;;;;5106190;27;20059;-76
2022/12/06 05:59:47;;;;;;;7.85;1.50;;;;;;;;;;5096169;27;20443;-75
2022/12/06 06:02:14;;;;;;;5.47;1.40;;;;;;;;;;5093283;27;20137;-76
2022/12/06 06:04:41;;;;;;;8.52;1.60;;;;;;;;;;5107396;27;20062;-76
2022/12/06 06:07:10;;;;;;;6.03;1.42;;;;;;;;;;5121647;27;20047;-76
2022/12/06 06:09:37;;;;;;;8.10;1.80;;;;;;;;;;5109920;27;20102;-76
2022/12/06 06:12:05;;;;;;;13.98;2.00;;;;;;;;;;5125177;27;20049;-76
2022/12/06 06:14:32;;;;;;;9.38;2.38;;;;;;;;;;5122771;27;20051;-76
2022/12/06 06:16:59;;;;;;;6.65;1.95;;;;;;;;;;5102058;27;20047;-76
2022/12/06 06:19:26;;;;;;;11.32;2.65;;;;;;;;;;5118228;27;20122;-74
2022/12/06 06:21:54;;;;;;;7.88;1.88;;;;;;;;;;5099486;27;20054;-77
2022/12/06 06:24:22;;;;;;;6.82;2.17;;;;;;;;;;5096081;27;20378;-73
2022/12/06 06:26:50;;;;;;;4.35;1.70;;;;;;;;;;5094384;27;20402;-74
2022/12/06 06:29:17;;;;;;;7.47;1.65;;;;;;;;;;5097484;27;20213;-76
2022/12/06 06:31:44;;;;;;;9.32;1.85;;;;;;;;;;5098246;27;20448;-74
2022/12/06 06:34:11;;;;;;;7.35;1.65;;;;;;;;;;5120734;27;20701;-73
2022/12/06 06:36:39;;;;;;;9.38;1.80;;;;;;;;;;5099988;27;20054;-72
2022/12/06 06:39:06;;;;;;;7.82;1.40;;;;;;;;;;5097127;27;20055;-75
2022/12/06 06:41:34;;;;;;;4.72;1.58;;;;;;;;;;5120410;27;20054;-77
2022/12/06 06:44:01;;;;;;;6.18;1.80;;;;;;;;;;5098703;27;20051;-74
2022/12/06 06:46:29;;;;;;;5.00;1.58;;;;;;;;;;5122144;27;20704;-75
2022/12/06 06:48:56;;;;;;;7.18;2.35;;;;;;;;;;5106863;27;20063;-74
2022/12/06 06:51:23;;;;;;;3.83;1.63;;;;;;;;;;5111938;27;20062;-74
2022/12/06 06:53:51;;;;;;;7.35;1.80;;;;;;;;;;5122150;27;20055;-75
2022/12/06 06:56:19;;;;;;;6.93;1.70;;;;;;;;;;5130735;27;20051;-74
2022/12/06 06:58:47;;;;;;;3.33;1.75;;;;;;;;;;5122263;27;20188;-74
2022/12/06 07:01:17;;;;;;;5.82;1.95;;;;;;;;;;5128003;27;20051;-74
2022/12/06 07:03:44;;;;;;;8.82;2.00;;;;;;;;;;5103820;27;20047;-75
2022/12/06 07:06:11;;;;;;;6.43;1.60;;;;;;;;;;5138757;27;20473;-74
2022/12/06 07:08:40;;;;;;;13.07;1.70;;;;;;;;;;5121605;27;20052;-75
2022/12/06 07:11:08;;;;;;;5.50;1.92;;;;;;;;;;5103854;27;20065;-74
2022/12/06 07:13:36;;;;;;;8.02;2.50;;;;;;;;;;5124904;27;20058;-75
2022/12/06 07:16:05;;;;;;;6.32;2.10;;;;;;;;;;5116997;27;20062;-74
2022/12/06 07:18:33;;;;;;;8.40;2.08;;;;;;;;;;5096477;27;20047;-74
2022/12/06 07:21:02;;;;;;;6.03;2.03;;;;;;;;;;5113634;27;20490;-74
2022/12/06 07:23:30;;;;;;;14.25;2.30;;;;;;;;;;5118166;27;20062;-73
2022/12/06 07:26:01;;;;;;;9.57;2.17;;;;;;;;;;5118349;27;20047;-74
2022/12/06 07:28:28;;;;;;;7.50;1.45;;;;;;;;;;5119507;27;20603;-74
2022/12/06 07:30:55;;;;;;;5.05;1.92;;;;;;;;;;5130523;27;20055;-74
2022/12/06 07:33:24;;;;;;;5.35;1.80;;;;;;;;;;5100130;27;20039;-74
2022/12/06 07:35:54;;;;;;;9.02;1.65;;;;;;;;;;5098232;27;20055;-74
2022/12/06 07:38:22;;;;;;;7.60;1.40;;;;;;;;;;5124684;27;20047;-74
2022/12/06 07:40:49;;;;;;;4.45;1.35;;;;;;;;;;5121101;27;20184;-74
2022/12/06 07:46:01;;;;;;;5.70;0.90;;;;;;;;;;5115885;27;20079;-75
2022/12/06 07:48:29;;;;;;;5.97;1.08;;;;;;;;;;5099302;27;20055;-74
2022/12/06 07:50:57;;;;;;;10.88;2.05;;;;;;;;;;5119655;27;20053;-74
2022/12/06 07:53:24;;;;;;;2.25;0.75;;;;;;;;;;5113013;27;20050;-73
2022/12/06 07:55:51;;;;;;;3.08;1.00;;;;;;;;;;5116084;27;20082;-73
2022/12/06 07:58:18;;;;;;;4.90;1.75;;;;;;;;;;5114062;27;20054;-72
2022/12/06 08:00:46;;;;;;;5.80;1.27;;;;;;;;;;5120101;27;20672;-72
2022/12/06 08:03:13;;;;;;;7.32;1.23;;;;;;;;;;5095294;27;20055;-73
2022/12/06 08:05:41;;;;;;;2.88;1.10;;;;;;;;;;5115230;27;20043;-72
2022/12/06 08:08:09;;;;;;;2.80;1.13;;;;;;;;;;5121607;27;20052;-73
2022/12/06 08:10:37;;;;;;;3.72;1.05;;;;;;;;;;5114670;27;20058;-72
2022/12/06 08:13:04;;;;;;;4.85;1.13;;;;;;;;;;5128053;27;20096;-73
2022/12/06 08:15:31;;;;;;;3.63;1.40;;;;;;;;;;5139655;27;20043;-73
2022/12/06 08:17:58;;;;;;;6.00;1.88;;;;;;;;;;5121297;27;20408;-73
2022/12/06 08:20:26;;;;;;;7.28;1.45;;;;;;;;;;5122937;27;20047;-72
2022/12/06 08:22:54;;;;;;;7.15;1.52;;;;;;;;;;5109185;27;20051;-73
2022/12/06 08:25:22;;;;;;;4.03;1.73;;;;;;;;;;5117588;27;20047;-73
2022/12/06 08:27:49;;;;;;;3.60;1.77;;;;;;;;;;5115231;27;20458;-73
2022/12/06 08:30:16;;;;;;;3.53;1.67;;;;;;;;;;5124387;27;20084;-72
2022/12/06 08:32:44;;;;;;;5.30;1.98;;;;;;;;;;5127259;27;20055;-73
2022/12/06 08:35:11;;;;;;;5.15;1.85;;;;;;;;;;5131435;27;20043;-73
2022/12/06 08:37:40;;;;;;;7.20;1.73;;;;;;;;;;5125691;27;20178;-72
2022/12/06 08:40:09;;;;;;;8.02;1.60;;;;;;;;;;5132543;27;20070;-73
2022/12/06 08:42:36;;;;;;;5.38;1.70;;;;;;;;;;5106173;27;20038;-73
2022/12/06 08:45:04;;;;;;;5.18;1.67;;;;;;;;;;5091975;27;20083;-73
2022/12/06 08:47:31;;;;;;;11.77;1.77;;;;;;;;;;5114102;27;20051;-73
2022/12/06 08:49:58;;;;;;;15.18;1.60;;;;;;;;;;5121077;27;20043;-72
2022/12/06 08:52:26;;;;;;;7.88;1.85;;;;;;;;;;5114902;27;20053;-70
2022/12/06 08:54:53;;;;;;;7.72;1.90;;;;;;;;;;5110566;27;20123;-72
2022/12/06 08:57:22;;;;;;;5.93;1.60;;;;;;;;;;5120396;27;20406;-72
2022/12/06 08:59:49;;;;;;;6.57;2.03;;;;;;;;;;5111058;27;20053;-73
2022/12/06 09:02:16;;;;;;;6.45;1.90;;;;;;;;;;5114565;27;20051;-74
2022/12/06 09:04:43;;;;;;;12.18;2.78;;;;;;;;;;5112126;27;20062;-73
2022/12/06 09:07:10;;;;;;;6.05;2.83;;;;;;;;;;5116588;27;20410;-73
2022/12/06 09:09:38;;;;;;;9.82;2.88;;;;;;;;;;5112415;27;20669;-73
2022/12/06 09:12:05;;;;;;;8.43;2.65;;;;;;;;;;5113089;27;20092;-73
2022/12/06 09:14:34;;;;;;;6.30;2.97;;;;;;;;;;5113761;27;20052;-73
2022/12/06 09:17:01;;;;;;;7.40;2.47;;;;;;;;;;5120638;27;20457;-73
2022/12/06 09:19:28;;;;;;;9.30;2.85;;;;;;;;;;5126198;27;20380;-73
2022/12/06 09:21:55;;;;;;;8.88;2.50;;;;;;;;;;5119180;27;20059;-73
2022/12/06 09:24:23;;;;;;;13.18;2.47;;;;;;;;;;5116251;27;20055;-73
2022/12/06 09:26:50;;;;;;;5.93;2.35;;;;;;;;;;5122020;27;20251;-73
2022/12/06 09:29:18;;;;;;;12.23;3.33;;;;;;;;;;5121574;27;20051;-73
2022/12/06 09:31:46;;;;;;;6.18;1.88;;;;;;;;;;5119050;27;20052;-73
2022/12/06 09:34:14;;;;;;;10.30;2.40;;;;;;;;;;5101927;28;20051;-73
2022/12/06 09:36:43;;;;;;;3.88;1.85;;;;;;;;;;5123560;27;20047;-73
2022/12/06 09:39:13;;;;;;;10.38;2.70;;;;;;;;;;5112405;27;20712;-73
2022/12/06 09:42:10;;;;;;;7.35;2.03;;;;;;;;;;5116339;27;20848;-73
2022/12/06 09:44:45;;;;;;;6.90;2.35;;;;;;;;;;5119479;27;20047;-73
2022/12/06 09:47:20;;;;;;;6.90;1.90;;;;;;;;;;5111057;27;20056;-73
2022/12/06 09:49:53;;;;;;;9.25;1.80;;;;;;;;;;5123534;27;20155;-73
2022/12/06 09:52:33;;;;;;;5.93;1.90;;;;;;;;;;5117599;27;20051;-73
2022/12/06 09:55:16;;;;;;;9.10;1.60;;;;;;;;;;5114919;27;20100;-73
2022/12/06 09:57:45;;;;;;;7.00;1.70;;;;;;;;;;5118826;27;20043;-73
2022/12/06 10:00:14;;;;;;;3.60;1.60;;;;;;;;;;5120230;27;20048;-74
2022/12/06 10:02:54;;;;;;;4.65;1.55;;;;;;;;;;5116878;27;20046;-73
2022/12/06 10:05:30;;;;;;;5.40;1.80;;;;;;;;;;5110530;27;20454;-73
2022/12/06 10:08:02;;;;;;;8.57;1.77;;;;;;;;;;5117725;27;20057;-73
2022/12/06 10:10:34;;;;;;;4.97;1.92;;;;;;;;;;5112962;27;20070;-73
2022/12/06 10:13:04;;;;;;;5.78;1.90;;;;;;;;;;5123702;27;20043;-73
2022/12/06 10:15:37;;;;;;;8.80;1.73;;;;;;;;;;5115892;27;20047;-72
2022/12/06 10:18:11;;;;;;;5.90;1.98;;;;;;;;;;5114837;27;20044;-73
2022/12/06 10:20:42;;;;;;;11.38;1.60;;;;;;;;;;5113161;27;20044;-73
2022/12/06 10:23:14;;;;;;;5.85;1.33;;;;;;;;;;5099690;27;20083;-73
2022/12/06 10:25:42;;;;;;;7.47;1.50;;;;;;;;;;5122383;27;20051;-74
2022/12/06 10:28:12;;;;;;;7.70;1.80;;;;;;;;;;5117678;27;20098;-73
2022/12/06 10:30:43;;;;;;;5.53;2.05;;;;;;;;;;5125631;27;20046;-72
2022/12/06 10:33:19;;;;;;;4.47;1.65;;;;;;;;;;5119704;27;20603;-73
2022/12/06 10:35:51;;;;;;;6.20;1.38;;;;;;;;;;5117916;27;20780;-73
2022/12/06 10:38:23;;;;;;;4.20;1.23;;;;;;;;;;5122236;27;20053;-73
2022/12/06 10:40:52;;;;;;;3.63;1.33;;;;;;;;;;5116648;27;20054;-73
2022/12/06 10:43:24;;;;;;;3.92;1.30;;;;;;;;;;5114829;27;20054;-73
2022/12/06 10:48:46;;;;;;;4.88;1.38;;;;;;;;;;5115176;27;20052;-74
2022/12/06 10:51:17;;;;;;;5.83;1.47;;;;;;;;;;5119066;27;20059;-73
2022/12/06 10:53:46;;;;;;;2.90;1.10;;;;;;;;;;5121215;27;20929;-74
2022/12/06 10:56:17;;;;;;;4.03;1.15;;;;;;;;;;5119679;27;20043;-73
2022/12/06 10:58:49;;;;;;;4.95;1.20;;;;;;;;;;5116894;27;20054;-73
2022/12/06 11:01:19;;;;;;;6.10;1.23;;;;;;;;;;5116047;27;20047;-72
2022/12/06 11:03:52;;;;;;;3.35;1.10;;;;;;;;;;5110623;27;20126;-73
2022/12/06 11:06:22;;;;;;;2.13;1.00;;;;;;;;;;5112627;27;20047;-73
2022/12/06 11:08:52;;;;;;;3.85;1.00;;;;;;;;;;5114539;27;20130;-73
2022/12/06 11:11:21;;;;;;;6.57;2.00;;;;;;;;;;5117494;27;20043;-71
2022/12/06 11:13:50;;;;;;;3.75;1.45;;;;;;;;;;5118356;27;20211;-73
2022/12/06 11:16:18;;;;;;;3.60;1.02;;;;;;;;;;5093020;27;20055;-73
2022/12/06 11:18:48;;;;;;;2.58;0.80;;;;;;;;;;5114439;27;20717;-72
2022/12/06 11:21:21;;;;;;;4.28;1.00;;;;;;;;;;5124430;27;20062;-73
2022/12/06 11:23:52;;;;;;;5.43;1.33;;;;;;;;;;5116250;27;20054;-73
2022/12/06 11:26:23;;;;;;;2.45;0.93;;;;;;;;;;5105787;27;20059;-73
2022/12/06 11:28:58;;;;;;;4.55;0.80;;;;;;;;;;5113050;27;20413;-72
2022/12/06 11:31:27;;;;;;;4.30;1.05;;;;;;;;;;5124145;27;20158;-73
2022/12/06 11:33:56;;;;;;;2.75;0.90;;;;;;;;;;5117465;27;20042;-73
2022/12/06 11:36:23;;;;;;;3.78;1.20;;;;;;;;;;5116520;27;20062;-72
2022/12/06 11:38:51;;;;;;;5.05;1.30;;;;;;;;;;5123527;27;20073;-73
2022/12/06 11:41:22;;;;;;;8.48;1.25;;;;;;;;;;5125011;27;20047;-72
2022/12/06 11:43:49;;;;;;;4.60;1.20;;;;;;;;;;5110003;27;20067;-72
2022/12/06 11:46:16;;;;;;;4.18;1.00;;;;;;;;;;5091046;27;20116;-71
2022/12/06 11:48:44;;;;;;;5.00;1.05;;;;;;;;;;5115822;27;20066;-72
2022/12/06 11:51:16;;;;;;;8.60;1.40;;;;;;;;;;5121744;27;20121;-72
2022/12/06 11:53:51;;;;;;;6.50;0.60;;;;;;;;;;5112328;27;20044;-71
2022/12/06 11:56:22;;;;;;;7.15;0.73;;;;;;;;;;5115042;27;20047;-72
2022/12/06 11:58:53;;;;;;;3.38;0.70;;;;;;;;;;5128953;27;20055;-72
2022/12/06 12:01:20;;;;;;;2.75;0.55;;;;;;;;;;5138618;27;20042;-72
2022/12/06 12:03:47;;;;;;;5.78;0.80;;;;;;;;;;5119384;27;20039;-70
2022/12/06 12:06:20;;;;;;;6.07;1.20;;;;;;;;;;5125243;27;20715;-72
2022/12/06 12:08:59;;;;;;;4.65;1.10;;;;;;;;;;5114457;27;20520;-71
2022/12/06 12:11:27;;;;;;;5.20;0.70;;;;;;;;;;5116765;27;20048;-72
2022/12/06 12:13:56;;;;;;;5.43;0.90;;;;;;;;;;5117138;27;20039;-72
2022/12/06 12:16:24;;;;;;;3.10;0.70;;;;;;;;;;5110008;27;20051;-72
2022/12/06 12:18:54;;;;;;;4.78;0.65;;;;;;;;;;5112435;27;20070;-71
2022/12/06 12:21:32;;;;;;;3.28;0.40;;;;;;;;;;5119666;27;20512;-72
2022/12/06 12:23:59;;;;;;;3.38;0.30;;;;;;;;;;5115073;27;20578;-71
2022/12/06 12:26:35;;;;;;;3.95;0.40;;;;;;;;;;5110351;27;20047;-72
2022/12/06 12:29:03;;;;;;;4.70;0.50;;;;;;;;;;5120435;27;20047;-72
2022/12/06 12:31:31;;;;;;;2.88;0.40;;;;;;;;;;5118518;27;20050;-73
2022/12/06 12:34:13;;;;;;;2.55;0.45;;;;;;;;;;5118830;27;20051;-72
2022/12/06 12:36:46;;;;;;;6.60;1.27;;;;;;;;;;5116921;27;20043;-72
2022/12/06 12:39:22;;;;;;;6.20;1.00;;;;;;;;;;5109931;27;20055;-72
2022/12/06 12:41:49;;;;;;;3.05;0.60;;;;;;;;;;5101858;27;20047;-72
2022/12/06 12:44:18;;;;;;;2.00;0.38;;;;;;;;;;5119390;27;20046;-72
2022/12/06 12:46:46;;;;;;;5.15;0.60;;;;;;;;;;5111029;27;20047;-72
2022/12/06 12:49:15;;;;;;;4.10;0.50;;;;;;;;;;5117853;27;20055;-71
2022/12/06 12:51:44;;;;;;;2.15;0.60;;;;;;;;;;5118004;27;20051;-72
2022/12/06 12:54:19;;;;;;;4.25;0.65;;;;;;;;;;5123224;27;20074;-71
2022/12/06 12:56:47;;;;;;;2.50;0.65;;;;;;;;;;5120987;27;20503;-71
2022/12/06 12:59:16;;;;;;;6.47;0.63;;;;;;;;;;5129207;27;20147;-72
2022/12/06 13:01:45;;;;;;;6.80;1.65;;;;;;;;;;5120450;27;20047;-72
2022/12/06 13:04:15;;;;;;;2.75;0.50;;;;;;;;;;5112161;27;20402;-71
2022/12/06 13:06:46;;;;;;;3.35;0.52;;;;;;;;;;5115196;27;20130;-73
2022/12/06 13:09:16;;;;;;;2.25;0.50;;;;;;;;;;5101129;27;20095;-71
2022/12/06 13:11:47;;;;;;;4.65;0.52;;;;;;;;;;5121273;27;20052;-72
2022/12/06 13:14:16;;;;;;;3.70;0.80;;;;;;;;;;5126468;27;20534;-71
2022/12/06 13:16:44;;;;;;;5.28;1.08;;;;;;;;;;5119138;27;20055;-72
2022/12/06 13:19:16;;;;;;;4.63;0.90;;;;;;;;;;5118886;27;20074;-72
2022/12/06 13:21:45;;;;;;;2.75;0.60;;;;;;;;;;5112524;27;20077;-71
2022/12/06 13:24:15;;;;;;;4.30;0.95;;;;;;;;;;5123635;27;20054;-72
2022/12/06 13:26:45;;;;;;;6.45;1.52;;;;;;;;;;5110455;27;20098;-71
2022/12/06 13:29:20;;;;;;;6.57;1.13;;;;;;;;;;5111611;27;20508;-70
2022/12/06 13:31:49;;;;;;;3.47;0.65;;;;;;;;;;5099133;28;20495;-70
2022/12/06 13:34:20;;;;;;;3.85;0.90;;;;;;;;;;5100201;28;20044;-70
2022/12/06 13:36:51;;;;;;;2.97;0.70;;;;;;;;;;5112905;27;20075;-70
2022/12/06 13:39:37;;;;;;;2.92;0.60;;;;;;;;;;5117107;27;20050;-70
2022/12/06 13:42:17;;;;;;;4.65;0.88;;;;;;;;;;5110060;27;20500;-70
2022/12/06 13:44:52;;;;;;;4.10;0.90;;;;;;;;;;5116314;27;20049;-70
2022/12/06 13:47:38;;;;;;;2.65;0.85;;;;;;;;;;5117133;27;20047;-70
2022/12/06 13:50:25;;;;;;;4.18;0.90;;;;;;;;;;5124124;27;20039;-70
2022/12/06 13:53:04;;;;;;;8.88;2.25;;;;;;;;;;5113104;27;20055;-69
2022/12/06 13:55:49;;;;;;;3.20;0.73;;;;;;;;;;5119425;27;20058;-69
2022/12/06 13:58:40;;;;;;;3.85;0.65;;;;;;;;;;5095113;28;20061;-70
2022/12/06 14:01:33;;;;;;;4.07;0.57;;;;;;;;;;5115556;27;20484;-70
2022/12/06 14:04:03;;;;;;;4.88;0.73;;;;;;;;;;5115106;27;20043;-70
2022/12/06 14:06:42;;;;;;;2.97;0.60;;;;;;;;;;5116334;27;20051;-70
2022/12/06 14:09:11;;;;;;;4.22;0.70;;;;;;;;;;5123227;27;20359;-70
2022/12/06 14:11:39;;;;;;;3.38;0.43;;;;;;;;;;5120537;27;20051;-70
2022/12/06 14:14:07;;;;;;;4.28;0.70;;;;;;;;;;5122887;27;20039;-70
2022/12/06 14:16:36;;;;;;;5.10;0.65;;;;;;;;;;5124953;27;20101;-71
2022/12/06 14:19:12;;;;;;;6.18;0.85;;;;;;;;;;5115874;27;20050;-70
2022/12/06 14:21:41;;;;;;;2.25;0.63;;;;;;;;;;5121647;27;20757;-70
2022/12/06 14:24:23;;;;;;;4.80;0.80;;;;;;;;;;5118101;27;20145;-70
2022/12/06 14:26:52;;;;;;;3.22;0.82;;;;;;;;;;5113379;27;20636;-71
2022/12/06 14:29:21;;;;;;;4.70;0.60;;;;;;;;;;5115336;27;20439;-70
2022/12/06 14:31:50;;;;;;;2.92;0.70;;;;;;;;;;5119256;27;20047;-70
2022/12/06 14:34:24;;;;;;;1.65;0.60;;;;;;;;;;5118211;27;20133;-71
2022/12/06 14:36:52;;;;;;;4.20;0.70;;;;;;;;;;5116174;27;20391;-71
2022/12/06 14:39:20;;;;;;;2.75;0.82;;;;;;;;;;5112802;27;20390;-71
2022/12/06 14:44:38;;;;;;;2.15;0.60;;;;;;;;;;5116474;27;20052;-68
2022/12/06 14:47:06;;;;;;;1.33;0.52;;;;;;;;;;5110232;27;20047;-69
2022/12/06 14:52:24;;;;;;;5.10;0.73;;;;;;;;;;5118866;27;20043;-69
2022/12/06 14:54:52;;;;;;;2.47;0.68;;;;;;;;;;5119192;27;20043;-69
2022/12/06 14:57:26;;;;;;;7.20;1.10;;;;;;;;;;5125156;27;20130;-69
2022/12/06 14:59:54;;;;;;;4.15;0.75;;;;;;;;;;5131295;27;20051;-69
2022/12/06 15:02:22;;;;;;;5.07;0.73;;;;;;;;;;5120553;27;20578;-70
2022/12/06 15:04:50;;;;;;;4.70;0.60;;;;;;;;;;5116997;27;20065;-69
2022/12/06 15:07:31;;;;;;;5.72;0.63;;;;;;;;;;5123730;27;20047;-69
2022/12/06 15:10:07;;;;;;;7.05;1.15;;;;;;;;;;5119597;27;20633;-69
2022/12/06 15:12:55;;;;;;;3.58;1.13;;;;;;;;;;5123673;27;20047;-70
2022/12/06 15:15:31;;;;;;;4.18;1.20;;;;;;;;;;5114620;27;20051;-69
2022/12/06 15:18:03;;;;;;;5.18;1.65;;;;;;;;;;5120187;27;20040;-69
2022/12/06 15:20:30;;;;;;;8.80;3.50;;;;;;;;;;5115247;27;20043;-69
2022/12/06 15:22:58;;;;;;;7.95;2.20;;;;;;;;;;5117384;27;20043;-70
2022/12/06 15:25:25;;;;;;;4.30;2.17;;;;;;;;;;5114516;27;20457;-69
2022/12/06 15:27:54;;;;;;;7.45;1.60;;;;;;;;;;5114742;27;20863;-69
2022/12/06 15:30:21;;;;;;;5.32;2.08;;;;;;;;;;5116168;27;20048;-69